createdAt,value
2018-06-17T00:01:45.604Z,12.10
2018-06-17T00:03:47.649Z,13.30
2018-06-17T00:05:49.692Z,13.07
2018-06-17T00:07:51.748Z,12.87
2018-06-17T00:09:53.830Z,13.50
2018-06-17T00:11:55.878Z,12.60
2018-06-17T00:13:57.961Z,13.17
2018-06-17T00:16:00.020Z,14.00
2018-06-17T00:18:02.046Z,14.10
2018-06-17T00:20:04.118Z,13.27
2018-06-17T00:22:06.266Z,12.23
2018-06-17T00:24:08.330Z,14.50
2018-06-17T00:26:10.398Z,13.73
2018-06-17T00:28:12.461Z,13.93
2018-06-17T00:30:14.561Z,13.23
2018-06-17T00:32:16.617Z,15.73
2018-06-17T00:34:18.703Z,15.13
2018-06-17T00:36:20.775Z,15.20
2018-06-17T00:38:22.831Z,15.13
2018-06-17T00:40:24.884Z,16.60
2018-06-17T00:42:26.950Z,15.87
2018-06-17T00:44:29.010Z,15.10
2018-06-17T00:46:31.137Z,15.57
2018-06-17T00:48:33.258Z,18.50
2018-06-17T00:50:35.361Z,17.13
2018-06-17T00:52:37.515Z,17.07
2018-06-17T00:54:39.745Z,18.77
2018-06-17T00:56:41.922Z,16.97
2018-06-17T00:58:44.059Z,17.63
2018-06-17T01:00:46.197Z,18.40
2018-06-17T01:02:48.305Z,19.47
2018-06-17T01:04:50.375Z,19.30
2018-06-17T01:06:52.461Z,19.27
2018-06-17T01:08:54.581Z,19.93
2018-06-17T01:10:56.757Z,20.00
2018-06-17T01:12:58.877Z,18.60
2018-06-17T01:15:00.985Z,18.67
2018-06-17T01:17:03.117Z,20.20
2018-06-17T01:19:05.246Z,19.60
2018-06-17T01:21:07.367Z,19.57
2018-06-17T01:23:09.443Z,18.00
2018-06-17T01:25:11.588Z,19.93
2018-06-17T01:27:13.719Z,20.50
2018-06-17T01:29:15.867Z,19.20
2018-06-17T01:31:17.985Z,18.80
2018-06-17T01:33:20.102Z,19.87
2018-06-17T01:35:22.206Z,20.00
2018-06-17T01:37:24.291Z,18.17
2018-06-17T01:39:26.399Z,18.67
2018-06-17T01:41:28.530Z,19.27
2018-06-17T01:43:30.621Z,17.40
2018-06-17T01:45:32.742Z,17.60
2018-06-17T01:47:34.888Z,17.20
2018-06-17T01:49:37.013Z,17.57
2018-06-17T01:51:39.118Z,17.63
2018-06-17T01:53:41.251Z,17.00
2018-06-17T01:55:43.390Z,17.60
2018-06-17T01:57:45.511Z,16.70
2018-06-17T01:59:47.669Z,17.80
2018-06-17T02:01:49.811Z,16.50
2018-06-17T02:03:57.732Z,16.20
2018-06-17T02:06:05.627Z,16.27
2018-06-17T02:08:13.577Z,16.50
2018-06-17T02:10:21.451Z,15.67
2018-06-17T02:12:23.597Z,15.90
2018-06-17T02:14:32.152Z,15.00
2018-06-17T02:16:34.300Z,15.57
2018-06-17T02:18:36.398Z,15.43
2018-06-17T02:20:38.461Z,16.87
2018-06-17T02:22:40.609Z,14.70
2018-06-17T02:24:42.834Z,14.40
2018-06-17T02:26:44.969Z,15.23
2018-06-17T02:28:46.962Z,15.00
2018-06-17T02:30:48.999Z,14.10
2018-06-17T02:32:51.037Z,15.23
2018-06-17T02:34:53.081Z,14.90
2018-06-17T02:36:55.129Z,14.57
2018-06-17T02:38:57.288Z,15.93
2018-06-17T02:40:59.333Z,15.93
2018-06-17T02:43:01.377Z,16.50
2018-06-17T02:45:09.216Z,15.90
2018-06-17T02:47:17.116Z,17.10
2018-06-17T02:49:24.836Z,17.20
2018-06-17T02:51:32.656Z,16.07
2018-06-17T02:53:40.409Z,16.13
2018-06-17T02:55:42.453Z,15.70
2018-06-17T02:57:44.496Z,16.30
2018-06-17T02:59:46.897Z,16.97
2018-06-17T03:01:48.953Z,15.77
2018-06-17T03:03:51.015Z,15.47
2018-06-17T03:05:53.147Z,17.70
2018-06-17T03:07:55.193Z,16.33
2018-06-17T03:09:57.213Z,16.70
2018-06-17T03:11:59.245Z,17.13
2018-06-17T03:14:01.290Z,18.77
2018-06-17T03:16:03.419Z,18.33
2018-06-17T03:18:05.543Z,18.97
2018-06-17T03:20:07.584Z,19.87
2018-06-17T03:22:09.610Z,19.03
2018-06-17T03:24:11.660Z,20.00
2018-06-17T03:26:19.582Z,19.63
2018-06-17T03:28:27.364Z,18.57
2018-06-17T03:30:35.198Z,19.27
2018-06-17T03:32:43.142Z,19.60
2018-06-17T03:34:49.838Z,19.93
2018-06-17T03:36:51.948Z,19.33
2018-06-17T03:38:54.009Z,20.07
2018-06-17T03:40:56.073Z,20.47
2018-06-17T03:42:58.189Z,19.13
2018-06-17T03:45:00.240Z,20.60
2018-06-17T03:47:02.319Z,20.03
2018-06-17T03:49:04.727Z,19.40
2018-06-17T03:51:06.958Z,19.27
2018-06-17T03:53:09.037Z,19.43
2018-06-17T03:55:11.101Z,19.67
2018-06-17T03:57:13.261Z,20.47
2018-06-17T03:59:15.324Z,17.93
2018-06-17T04:01:17.379Z,19.90
2018-06-17T04:03:19.445Z,19.40
2018-06-17T04:05:30.217Z,18.67
2018-06-17T04:07:32.305Z,21.17
2018-06-17T04:09:34.369Z,19.70
2018-06-17T04:11:36.729Z,20.60
2018-06-17T04:13:38.786Z,19.87
2018-06-17T04:15:40.863Z,21.70
2018-06-17T04:17:42.917Z,22.07
2018-06-17T04:19:45.487Z,21.07
2018-06-17T04:21:47.525Z,21.97
2018-06-17T04:23:49.563Z,21.73
2018-06-17T04:25:51.617Z,23.93
2018-06-17T04:27:53.720Z,21.13
2018-06-17T04:29:55.748Z,21.30
2018-06-17T04:31:57.781Z,21.95
2018-06-17T04:34:00.646Z,20.83
2018-06-17T04:36:02.729Z,23.13
2018-06-17T04:38:04.776Z,21.17
2018-06-17T04:40:06.829Z,23.97
2018-06-17T04:42:08.910Z,23.13
2018-06-17T04:44:10.954Z,25.00
2018-06-17T04:46:12.993Z,24.10
2018-06-17T04:48:15.031Z,23.87
2018-06-17T04:50:17.073Z,23.87
2018-06-17T04:52:19.108Z,24.67
2018-06-17T04:54:21.157Z,23.73
2018-06-17T04:56:23.210Z,25.47
2018-06-17T04:58:25.269Z,26.40
2018-06-17T05:00:27.308Z,21.40
2018-06-17T05:02:29.369Z,23.00
2018-06-17T05:04:31.469Z,20.67
2018-06-17T05:06:33.606Z,19.27
2018-06-17T05:08:35.730Z,17.63
2018-06-17T05:10:37.881Z,19.10
2018-06-17T05:12:39.959Z,18.33
2018-06-17T05:14:42.064Z,18.03
2018-06-17T05:16:44.150Z,16.87
2018-06-17T05:18:46.266Z,16.60
2018-06-17T05:20:48.381Z,16.80
2018-06-17T05:22:50.576Z,15.73
2018-06-17T05:24:52.727Z,15.60
2018-06-17T05:26:54.823Z,15.30
2018-06-17T05:28:56.946Z,13.13
2018-06-17T05:30:59.065Z,12.23
2018-06-17T05:33:01.261Z,13.40
2018-06-17T05:35:03.459Z,14.03
2018-06-17T05:37:05.602Z,14.03
2018-06-17T05:39:09.682Z,14.43
2018-06-17T05:41:11.781Z,13.53
2018-06-17T05:43:13.874Z,14.80
2018-06-17T05:45:15.990Z,13.23
2018-06-17T05:47:18.114Z,13.20
2018-06-17T05:49:20.236Z,12.83
2018-06-17T05:51:22.367Z,13.60
2018-06-17T05:53:24.471Z,13.83
2018-06-17T05:55:26.613Z,13.70
2018-06-17T05:57:28.735Z,14.13
2018-06-17T05:59:30.902Z,16.27
2018-06-17T06:01:33.019Z,15.73
2018-06-17T06:03:35.123Z,14.90
2018-06-17T06:05:37.302Z,14.17
2018-06-17T06:07:39.422Z,15.47
2018-06-17T06:09:41.542Z,15.27
2018-06-17T06:11:43.695Z,16.73
2018-06-17T06:13:45.836Z,16.43
2018-06-17T06:15:47.950Z,15.97
2018-06-17T06:17:50.050Z,16.73
2018-06-17T06:19:52.171Z,16.77
2018-06-17T06:21:54.274Z,15.97
2018-06-17T06:23:56.451Z,14.97
2018-06-17T06:25:58.574Z,16.47
2018-06-17T06:28:00.692Z,15.37
2018-06-17T06:30:02.885Z,14.37
2018-06-17T06:32:04.953Z,14.50
2018-06-17T06:34:07.101Z,12.60
2018-06-17T06:36:09.142Z,8.10
2018-06-17T06:38:11.224Z,6.83
2018-06-17T06:40:13.321Z,6.90
2018-06-17T06:42:15.433Z,7.30
2018-06-17T06:44:17.475Z,7.13
2018-06-17T06:46:19.573Z,7.50
2018-06-17T06:48:21.673Z,7.00
2018-06-17T06:50:23.729Z,5.77
2018-06-17T06:52:25.760Z,5.60
2018-06-17T06:54:27.876Z,4.40
2018-06-17T06:56:30.021Z,4.50
2018-06-17T06:58:32.163Z,4.20
2018-06-17T07:00:35.495Z,4.30
2018-06-17T07:02:49.150Z,3.60
2018-06-17T07:05:02.787Z,3.67
2018-06-17T07:07:16.326Z,3.52
2018-06-17T07:09:30.063Z,3.80
2018-06-17T07:11:32.293Z,3.57
2018-06-17T07:13:34.441Z,3.60
2018-06-17T07:15:48.309Z,2.90
2018-06-17T07:18:02.001Z,3.10
2018-06-17T07:20:04.101Z,2.80
2018-06-17T07:22:06.159Z,3.13
2018-06-17T07:24:08.222Z,2.90
2018-06-17T07:26:32.131Z,3.00
2018-06-17T07:28:55.619Z,3.67
2018-06-17T07:30:57.765Z,3.53
2018-06-17T07:32:59.864Z,3.97
2018-06-17T07:35:01.960Z,3.73
2018-06-17T07:37:04.202Z,4.60
2018-06-17T07:39:15.530Z,3.47
2018-06-17T07:41:17.695Z,2.83
2018-06-17T07:43:19.766Z,2.83
2018-06-17T07:45:21.824Z,2.80
2018-06-17T07:47:23.906Z,2.60
2018-06-17T07:49:43.085Z,2.60
2018-06-17T07:51:56.855Z,2.50
2018-06-17T07:53:58.916Z,2.67
2018-06-17T07:56:01.112Z,2.60
2018-06-17T07:58:03.130Z,2.50
2018-06-17T08:00:05.222Z,2.10
2018-06-17T08:02:07.817Z,2.97
2018-06-17T08:04:09.932Z,2.30
2018-06-17T08:06:12.081Z,3.00
2018-06-17T08:08:14.201Z,2.57
2018-06-17T08:10:16.345Z,3.30
2018-06-17T08:12:18.485Z,2.50
2018-06-17T08:14:20.747Z,2.27
2018-06-17T08:16:22.873Z,2.63
2018-06-17T08:18:24.949Z,2.43
2018-06-17T08:20:27.005Z,2.40
2018-06-17T08:22:29.064Z,2.60
2018-06-17T08:24:31.733Z,2.23
2018-06-17T08:26:33.928Z,2.67
2018-06-17T08:28:36.026Z,2.13
2018-06-17T08:30:38.118Z,3.00
2018-06-17T08:32:40.421Z,2.83
2018-06-17T08:34:42.552Z,3.00
2018-06-17T08:36:44.678Z,2.50
2018-06-17T08:38:46.837Z,2.50
2018-06-17T08:40:49.015Z,3.10
2018-06-17T08:42:51.133Z,2.73
2018-06-17T08:44:53.302Z,2.20
2018-06-17T08:46:55.459Z,3.47
2018-06-17T08:48:57.584Z,1.83
2018-06-17T08:50:59.667Z,2.30
2018-06-17T08:53:01.816Z,2.43
2018-06-17T08:55:04.073Z,2.10
2018-06-17T08:57:06.185Z,2.20
2018-06-17T08:59:08.769Z,1.97
2018-06-17T09:01:10.939Z,2.53
2018-06-17T09:03:13.083Z,2.00
2018-06-17T09:05:15.181Z,2.60
2018-06-17T09:07:17.333Z,3.63
2018-06-17T09:09:19.474Z,2.40
2018-06-17T09:11:21.919Z,2.60
2018-06-17T09:13:24.039Z,2.80
2018-06-17T09:15:26.170Z,2.60
2018-06-17T09:17:28.353Z,2.70
2018-06-17T09:19:30.439Z,2.60
2018-06-17T09:21:32.564Z,2.10
2018-06-17T09:23:35.002Z,2.40
2018-06-17T09:25:37.150Z,2.53
2018-06-17T09:27:39.249Z,2.33
2018-06-17T09:29:41.341Z,2.63
2018-06-17T09:31:43.521Z,2.67
2018-06-17T09:33:45.581Z,2.40
2018-06-17T09:35:47.757Z,2.23
2018-06-17T09:37:49.918Z,2.47
2018-06-17T09:39:52.023Z,2.37
2018-06-17T09:41:54.028Z,2.60
2018-06-17T09:43:56.106Z,2.70
2018-06-17T09:45:58.117Z,2.80
2018-06-17T09:48:00.126Z,2.73
2018-06-17T09:50:02.137Z,2.70
2018-06-17T09:52:04.327Z,2.93
2018-06-17T09:54:06.357Z,2.37
2018-06-17T09:56:08.417Z,2.67
2018-06-17T09:58:10.506Z,2.60
2018-06-17T10:00:17.190Z,2.20
2018-06-17T10:02:19.251Z,2.10
2018-06-17T10:04:21.374Z,2.10
2018-06-17T10:06:23.454Z,2.80
2018-06-17T10:08:25.545Z,2.53
2018-06-17T10:11:00.688Z,2.70
2018-06-17T10:13:02.761Z,2.13
2018-06-17T10:15:04.825Z,2.50
2018-06-17T10:17:06.928Z,2.50
2018-06-17T10:19:09.057Z,2.60
2018-06-17T10:21:11.199Z,2.37
2018-06-17T10:23:13.309Z,2.20
2018-06-17T10:25:15.378Z,2.60
2018-06-17T10:27:17.505Z,1.80
2018-06-17T10:29:19.631Z,2.57
2018-06-17T10:31:21.669Z,2.40
2018-06-17T10:33:23.754Z,2.57
2018-06-17T10:35:25.823Z,2.50
2018-06-17T10:37:27.996Z,3.13
2018-06-17T10:39:30.120Z,2.83
2018-06-17T10:41:32.177Z,2.60
2018-06-17T10:43:34.285Z,2.10
2018-06-17T10:45:36.389Z,3.10
2018-06-17T10:47:38.469Z,2.10
2018-06-17T10:49:40.531Z,3.10
2018-06-17T10:51:42.606Z,2.67
2018-06-17T10:53:44.717Z,2.30
2018-06-17T10:55:46.846Z,2.43
2018-06-17T10:57:54.494Z,2.10
2018-06-17T10:59:56.700Z,2.67
2018-06-17T11:01:59.273Z,2.60
2018-06-17T11:04:01.401Z,2.60
2018-06-17T11:06:03.457Z,2.90
2018-06-17T11:08:05.550Z,2.43
2018-06-17T11:10:07.963Z,2.50
2018-06-17T11:12:10.082Z,2.40
2018-06-17T11:14:12.243Z,2.80
2018-06-17T11:16:14.555Z,3.17
2018-06-17T11:18:16.600Z,2.90
2018-06-17T11:20:18.684Z,2.63
2018-06-17T11:22:20.905Z,2.70
2018-06-17T11:24:22.986Z,2.73
2018-06-17T11:26:25.077Z,3.43
2018-06-17T11:28:27.175Z,2.60
2018-06-17T11:30:29.264Z,2.87
2018-06-17T11:32:31.313Z,3.23
2018-06-17T11:34:33.605Z,3.37
2018-06-17T11:36:35.649Z,2.60
2018-06-17T11:38:37.753Z,2.63
2018-06-17T11:40:39.800Z,2.60
2018-06-17T11:42:41.846Z,3.13
2018-06-17T11:44:43.930Z,2.53
2018-06-17T11:46:45.924Z,2.90
2018-06-17T11:48:47.984Z,3.00
2018-06-17T11:50:50.072Z,3.40
2018-06-17T11:52:52.248Z,2.60
2018-06-17T11:54:54.357Z,3.57
2018-06-17T11:56:56.397Z,3.57
2018-06-17T11:58:58.472Z,2.90
2018-06-17T12:01:00.536Z,2.90
2018-06-17T12:03:02.613Z,3.27
2018-06-17T12:05:04.677Z,3.20
2018-06-17T12:07:06.749Z,3.20
2018-06-17T12:09:09.702Z,3.23
2018-06-17T12:11:11.796Z,3.27
2018-06-17T12:13:13.938Z,3.90
2018-06-17T12:15:16.052Z,3.73
2018-06-17T12:17:18.154Z,3.57
2018-06-17T12:19:20.263Z,3.37
2018-06-17T12:21:22.336Z,3.40
2018-06-17T12:23:24.402Z,3.30
2018-06-17T12:25:26.495Z,3.50
2018-06-17T12:27:28.564Z,3.63
2018-06-17T12:29:30.636Z,3.20
2018-06-17T12:31:32.681Z,3.00
2018-06-17T12:33:34.785Z,3.20
2018-06-17T12:35:36.819Z,3.13
2018-06-17T12:37:38.874Z,2.77
2018-06-17T12:39:40.928Z,3.63
2018-06-17T12:41:42.985Z,3.70
2018-06-17T12:43:45.071Z,3.50
2018-06-17T12:45:47.203Z,3.40
2018-06-17T12:47:49.296Z,3.63
2018-06-17T12:49:51.351Z,3.60
2018-06-17T12:51:53.418Z,3.50
2018-06-17T12:53:55.491Z,3.30
2018-06-17T12:55:57.577Z,3.67
2018-06-17T12:57:59.633Z,3.07
2018-06-17T13:00:01.710Z,2.93
2018-06-17T13:02:03.785Z,2.73
2018-06-17T13:04:05.908Z,2.57
2018-06-17T13:06:08.043Z,2.57
2018-06-17T13:08:10.128Z,3.13
2018-06-17T13:10:12.247Z,3.10
2018-06-17T13:12:14.305Z,3.73
2018-06-17T13:14:16.411Z,3.20
2018-06-17T13:16:18.477Z,2.80
2018-06-17T13:18:20.569Z,2.90
2018-06-17T13:20:23.645Z,3.27
2018-06-17T13:22:25.725Z,3.20
2018-06-17T13:24:27.789Z,3.10
2018-06-17T13:26:29.870Z,3.60
2018-06-17T13:28:31.981Z,3.20
2018-06-17T13:30:34.154Z,2.97
2018-06-17T13:32:36.224Z,3.20
2018-06-17T13:34:38.305Z,3.70
2018-06-17T13:36:40.361Z,3.00
2018-06-17T13:38:42.458Z,3.40
2018-06-17T13:40:44.551Z,3.07
2018-06-17T13:42:46.696Z,2.93
2018-06-17T13:44:48.889Z,3.53
2018-06-17T13:46:51.086Z,3.17
2018-06-17T13:48:53.230Z,3.20
2018-06-17T13:50:55.411Z,2.97
2018-06-17T13:52:57.501Z,2.90
2018-06-17T13:54:59.574Z,2.60
2018-06-17T13:57:01.641Z,3.13
2018-06-17T13:59:03.734Z,2.93
2018-06-17T14:01:05.813Z,2.90
2018-06-17T14:03:07.906Z,3.37
2018-06-17T14:05:09.936Z,3.13
2018-06-17T14:07:11.977Z,2.93
2018-06-17T14:09:14.043Z,3.30
2018-06-17T14:11:16.106Z,3.03
2018-06-17T14:13:18.169Z,3.27
2018-06-17T14:15:20.263Z,3.60
2018-06-17T14:17:22.321Z,3.07
2018-06-17T14:19:24.409Z,3.50
2018-06-17T14:55:54.086Z,13.45
2018-06-17T14:57:56.169Z,18.23
2018-06-17T14:59:58.263Z,16.70
2018-06-17T15:02:00.443Z,9.90
2018-06-17T15:04:02.505Z,6.10
2018-06-17T15:06:04.769Z,30.27
2018-06-17T15:08:06.858Z,8.90
2018-06-17T15:10:08.898Z,19.47
2018-06-17T15:12:10.997Z,7.20
2018-06-17T15:14:13.071Z,9.93
2018-06-17T15:16:15.157Z,4.90
2018-06-17T15:18:17.263Z,5.70
2018-06-17T15:20:19.291Z,3.57
2018-06-17T15:22:21.344Z,3.40
2018-06-17T15:24:23.393Z,4.10
2018-06-17T15:26:25.453Z,4.10
2018-06-17T15:28:27.513Z,3.50
2018-06-17T15:30:29.566Z,3.80
2018-06-17T15:32:37.471Z,4.13
2018-06-17T15:34:45.374Z,3.63
2018-06-17T15:36:53.283Z,3.43
2018-06-17T15:38:56.784Z,4.13
2018-06-17T15:41:04.705Z,3.30
2018-06-17T15:43:07.585Z,3.50
2018-06-17T15:45:09.677Z,3.00
2018-06-17T15:47:11.762Z,4.30
2018-06-17T15:49:13.830Z,3.00
2018-06-17T15:51:15.997Z,3.63
2018-06-17T15:53:18.082Z,3.23
2018-06-17T15:55:20.223Z,3.90
2018-06-17T15:57:22.293Z,3.80
2018-06-17T15:59:24.505Z,3.47
2018-06-17T16:01:26.594Z,3.60
2018-06-17T16:03:28.685Z,3.10
2018-06-17T16:05:30.866Z,3.37
2018-06-17T16:07:32.936Z,4.20
2018-06-17T16:09:35.065Z,3.20
2018-06-17T16:13:45.058Z,3.43
2018-06-17T16:15:52.735Z,3.37
2018-06-17T16:18:00.641Z,3.80
2018-06-17T16:20:08.579Z,3.07
2018-06-17T16:22:10.658Z,3.37
2018-06-17T16:24:12.765Z,3.47
2018-06-17T16:26:14.805Z,3.15
2018-06-17T16:28:16.870Z,2.63
2018-06-17T16:30:18.935Z,2.73
2018-06-17T16:32:20.984Z,2.50
2018-06-17T16:34:23.050Z,3.30
2018-06-17T16:36:25.087Z,2.73
2018-06-17T16:38:27.157Z,3.20
2018-06-17T16:40:29.268Z,2.97
2018-06-17T16:42:31.360Z,3.10
2018-06-17T16:44:33.423Z,2.80
2018-06-17T16:46:35.531Z,2.43
2018-06-17T16:48:37.599Z,2.37
2018-06-17T16:50:42.784Z,2.80
2018-06-17T16:52:50.772Z,3.27
2018-06-17T16:54:58.707Z,3.30
2018-06-17T16:57:06.532Z,2.90
2018-06-17T16:59:14.378Z,2.90
2018-06-17T17:01:16.684Z,2.90
2018-06-17T17:03:18.734Z,2.77
2018-06-17T17:05:20.975Z,3.17
2018-06-17T17:07:23.187Z,3.67
2018-06-17T17:09:25.335Z,3.07
2018-06-17T17:11:27.421Z,2.90
2018-06-17T17:13:29.666Z,3.43
2018-06-17T17:15:31.808Z,2.87
2018-06-17T17:17:34.172Z,3.20
2018-06-17T17:19:36.237Z,3.23
2018-06-17T17:21:38.336Z,2.87
2018-06-17T17:23:40.384Z,2.97
2018-06-17T17:25:42.446Z,3.13
2018-06-17T17:27:44.490Z,3.37
2018-06-17T17:29:46.661Z,3.00
2018-06-17T17:31:54.445Z,3.20
2018-06-17T17:34:02.385Z,3.20
2018-06-17T17:36:10.140Z,2.80
2018-06-17T17:38:18.137Z,3.07
2018-06-17T17:40:26.060Z,2.97
2018-06-17T17:42:28.170Z,3.40
2018-06-17T17:44:34.891Z,3.40
2018-06-17T17:47:41.184Z,3.50
2018-06-17T17:49:43.224Z,3.20
2018-06-17T17:51:45.298Z,3.27
2018-06-17T17:53:47.396Z,3.50
2018-06-17T17:55:49.487Z,3.07
2018-06-17T17:57:51.550Z,3.03
2018-06-17T17:59:53.617Z,3.03
2018-06-17T18:01:55.649Z,3.33
2018-06-17T18:03:57.755Z,3.20
2018-06-17T18:05:59.828Z,3.40
2018-06-17T18:08:01.873Z,3.33
2018-06-17T18:10:03.950Z,3.60
2018-06-17T18:12:06.021Z,2.40
2018-06-17T18:14:08.086Z,3.17
2018-06-17T18:16:10.332Z,3.50
2018-06-17T18:18:12.425Z,3.27
2018-06-17T18:20:14.560Z,3.50
2018-06-17T18:22:17.143Z,3.77
2018-06-17T18:24:19.234Z,3.50
2018-06-17T18:26:27.097Z,2.77
2018-06-17T18:28:34.804Z,3.37
2018-06-17T18:30:42.674Z,3.67
2018-06-17T18:32:50.585Z,3.50
2018-06-17T18:34:58.470Z,3.50
2018-06-17T18:37:00.555Z,3.77
2018-06-17T18:39:02.929Z,2.90
2018-06-17T18:41:04.986Z,3.70
2018-06-17T18:43:07.077Z,4.20
2018-06-17T18:45:09.161Z,3.90
2018-06-17T18:47:11.225Z,3.80
2018-06-17T18:49:13.293Z,3.43
2018-06-17T18:51:15.393Z,3.60
2018-06-17T18:53:19.705Z,3.93
2018-06-17T18:55:21.788Z,3.10
2018-06-17T18:57:23.839Z,3.73
2018-06-17T18:59:25.900Z,3.77
2018-06-17T19:01:28.021Z,4.50
2018-06-17T19:03:30.050Z,3.63
2018-06-17T19:05:32.111Z,3.40
2018-06-17T19:07:34.234Z,3.63
2018-06-17T19:09:42.065Z,3.70
2018-06-17T19:11:49.942Z,4.23
2018-06-17T19:13:55.133Z,3.90
2018-06-17T19:16:04.076Z,3.50
2018-06-17T19:18:08.524Z,3.83
2018-06-17T19:20:10.579Z,3.57
2018-06-17T19:22:12.655Z,4.30
2018-06-17T19:24:14.717Z,3.83
2018-06-17T19:26:16.806Z,3.60
2018-06-17T19:28:18.886Z,3.77
2018-06-17T19:30:21.117Z,3.60
2018-06-17T19:32:23.607Z,4.10
2018-06-17T19:34:25.640Z,3.90
2018-06-17T19:36:27.710Z,3.90
2018-06-17T19:38:29.774Z,4.40
2018-06-17T19:40:32.209Z,3.93
2018-06-17T19:42:34.281Z,4.00
2018-06-17T19:44:36.386Z,4.10
2018-06-17T19:46:38.668Z,4.90
2018-06-17T19:48:40.755Z,4.30
2018-06-17T19:50:48.660Z,4.20
2018-06-17T19:52:56.521Z,4.20
2018-06-17T19:55:04.510Z,4.93
2018-06-17T19:57:12.423Z,3.63
2018-06-17T19:59:20.433Z,4.40
2018-06-17T20:01:22.523Z,3.90
2018-06-17T20:03:24.581Z,4.77
2018-06-17T20:05:26.713Z,4.43
2018-06-17T20:07:28.733Z,4.08
2018-06-17T20:09:30.772Z,4.03
2018-06-17T20:11:32.848Z,4.70
2018-06-17T20:13:34.883Z,4.37
2018-06-17T20:15:36.914Z,5.00
2018-06-17T20:17:38.965Z,4.27
2018-06-17T20:19:41.025Z,4.27
2018-06-17T20:21:43.068Z,4.70
2018-06-17T20:23:45.141Z,3.67
2018-06-17T20:25:47.208Z,5.07
2018-06-17T20:27:49.284Z,4.80
2018-06-17T20:29:51.338Z,5.30
2018-06-17T20:31:59.189Z,5.00
2018-06-17T20:34:07.540Z,4.47
2018-06-17T20:36:15.262Z,4.40
2018-06-17T20:38:23.158Z,4.03
2018-06-17T20:40:31.041Z,4.50
2018-06-17T20:42:38.815Z,3.90
2018-06-17T20:44:40.882Z,4.43
2018-06-17T20:46:43.033Z,4.73
2018-06-17T20:48:45.653Z,4.33
2018-06-17T20:50:47.746Z,4.90
2018-06-17T20:52:49.971Z,5.50
2018-06-17T20:54:52.159Z,5.30
2018-06-17T20:56:54.239Z,5.30
2018-06-17T20:58:56.313Z,5.40
2018-06-17T21:00:58.378Z,5.40
2018-06-17T21:03:00.430Z,5.83
2018-06-17T21:05:02.565Z,6.00
2018-06-17T21:07:04.612Z,5.67
2018-06-17T21:09:07.990Z,5.90
2018-06-17T21:11:10.127Z,5.73
2018-06-17T21:13:12.277Z,6.10
2018-06-17T21:15:16.242Z,5.73
2018-06-17T21:17:18.350Z,5.20
2018-06-17T21:19:26.240Z,5.80
2018-06-17T21:21:34.181Z,5.00
2018-06-17T21:23:42.018Z,5.80
2018-06-17T21:25:49.801Z,6.27
2018-06-17T21:27:53.272Z,5.13
2018-06-17T21:29:55.351Z,5.80
2018-06-17T21:31:57.445Z,5.70
2018-06-17T21:33:59.511Z,6.00
2018-06-17T21:36:01.694Z,5.80
2018-06-17T21:38:03.705Z,6.33
2018-06-17T21:40:05.783Z,5.60
2018-06-17T21:42:07.836Z,5.80
2018-06-17T21:44:10.027Z,6.60
2018-06-17T21:46:12.135Z,6.60
2018-06-17T21:48:14.293Z,6.33
2018-06-17T21:50:16.429Z,6.30
2018-06-17T21:52:18.571Z,6.63
2018-06-17T21:54:20.677Z,6.87
2018-06-17T21:56:22.838Z,6.80
2018-06-17T21:58:30.807Z,6.17
2018-06-17T22:00:32.878Z,6.20
2018-06-17T22:02:39.560Z,6.37
2018-06-17T22:04:41.940Z,6.07
2018-06-17T22:06:44.013Z,7.00
2018-06-17T22:08:51.883Z,6.20
2018-06-17T22:10:59.693Z,6.80
2018-06-17T22:13:01.949Z,6.10
2018-06-17T22:15:10.077Z,6.53
2018-06-17T22:17:17.931Z,6.60
2018-06-17T22:19:20.123Z,5.50
2018-06-17T22:21:22.188Z,6.60
2018-06-17T22:23:24.246Z,7.40
2018-06-17T22:25:26.325Z,7.87
2018-06-17T22:27:28.439Z,7.93
2018-06-17T22:29:30.498Z,8.13
2018-06-17T22:31:32.549Z,8.07
2018-06-17T22:33:34.593Z,7.67
2018-06-17T22:35:36.652Z,7.50
2018-06-17T22:37:38.745Z,8.23
2018-06-17T22:39:40.810Z,7.70
2018-06-17T22:41:42.860Z,7.90
2018-06-17T22:43:44.909Z,7.03
2018-06-17T22:45:46.959Z,8.23
2018-06-17T22:47:54.868Z,7.77
2018-06-17T22:49:56.981Z,7.30
2018-06-17T22:51:59.089Z,7.73
2018-06-17T22:54:12.890Z,7.30
2018-06-17T22:56:20.662Z,6.60
2018-06-17T22:58:28.546Z,6.80
2018-06-17T23:00:36.413Z,6.60
2018-06-17T23:02:44.259Z,5.87
2018-06-17T23:04:52.141Z,6.70
2018-06-17T23:07:00.023Z,5.90
2018-06-17T23:09:07.944Z,6.83
2018-06-17T23:11:10.028Z,6.70
2018-06-17T23:13:12.125Z,6.50
2018-06-17T23:15:14.203Z,6.50
2018-06-17T23:17:16.274Z,6.73
2018-06-17T23:19:18.410Z,6.83
2018-06-17T23:21:20.477Z,6.37
2018-06-17T23:23:22.528Z,6.23
2018-06-17T23:25:24.572Z,6.97
2018-06-17T23:27:26.633Z,6.83
2018-06-17T23:29:28.694Z,6.30
2018-06-17T23:31:30.779Z,6.50
2018-06-17T23:33:32.813Z,6.97
2018-06-17T23:35:34.896Z,7.17
2018-06-17T23:37:36.967Z,6.60
2018-06-17T23:39:39.026Z,6.07
2018-06-17T23:41:41.089Z,6.00
2018-06-17T23:43:44.050Z,6.97
2018-06-17T23:45:51.799Z,5.70
2018-06-17T23:47:59.703Z,6.93
2018-06-17T23:50:07.596Z,7.10
2018-06-17T23:52:15.539Z,6.33
2018-06-17T23:54:23.462Z,7.17
2018-06-17T23:56:25.530Z,7.20
2018-06-17T23:58:27.608Z,6.77
